sensor_id;sensor_type;location;lat;lon;timestamp;P1;durP1;ratioP1;P2;durP2;ratioP2
4812;SDS011;2420;51.202;8.698;2023-05-24T00:00:37;6.55;;;2.42;;
4812;SDS011;2420;51.202;8.698;2023-05-24T00:03:02;11.38;;;2.97;;
4812;SDS011;2420;51.202;8.698;2023-05-24T00:05:28;9.13;;;3.20;;
4812;SDS011;2420;51.202;8.698;2023-05-24T00:07:55;7.47;;;2.13;;
4812;SDS011;2420;51.202;8.698;2023-05-24T00:10:21;7.90;;;3.10;;
4812;SDS011;2420;51.202;8.698;2023-05-24T00:12:46;8.45;;;2.50;;
4812;SDS011;2420;51.202;8.698;2023-05-24T00:15:12;7.60;;;2.72;;
4812;SDS011;2420;51.202;8.698;2023-05-24T00:17:37;7.28;;;2.40;;
4812;SDS011;2420;51.202;8.698;2023-05-24T00:20:06;8.65;;;2.70;;
4812;SDS011;2420;51.202;8.698;2023-05-24T00:22:34;8.10;;;3.00;;
4812;SDS011;2420;51.202;8.698;2023-05-24T00:25:01;5.68;;;2.45;;
4812;SDS011;2420;51.202;8.698;2023-05-24T00:27:27;6.65;;;2.67;;
4812;SDS011;2420;51.202;8.698;2023-05-24T00:29:52;9.32;;;3.03;;
4812;SDS011;2420;51.202;8.698;2023-05-24T00:32:18;8.02;;;2.67;;
4812;SDS011;2420;51.202;8.698;2023-05-24T00:34:43;8.02;;;2.65;;
4812;SDS011;2420;51.202;8.698;2023-05-24T00:37:10;9.13;;;2.60;;
4812;SDS011;2420;51.202;8.698;2023-05-24T00:39:36;10.90;;;2.88;;
4812;SDS011;2420;51.202;8.698;2023-05-24T00:42:02;9.98;;;2.80;;
4812;SDS011;2420;51.202;8.698;2023-05-24T00:44:28;10.15;;;3.08;;
4812;SDS011;2420;51.202;8.698;2023-05-24T00:46:54;11.95;;;3.25;;
4812;SDS011;2420;51.202;8.698;2023-05-24T00:49:20;8.90;;;2.80;;
4812;SDS011;2420;51.202;8.698;2023-05-24T00:51:46;8.40;;;3.05;;
4812;SDS011;2420;51.202;8.698;2023-05-24T00:54:13;9.40;;;3.00;;
4812;SDS011;2420;51.202;8.698;2023-05-24T00:56:39;8.27;;;3.00;;
4812;SDS011;2420;51.202;8.698;2023-05-24T00:59:09;12.27;;;2.90;;
4812;SDS011;2420;51.202;8.698;2023-05-24T01:01:34;9.95;;;2.78;;
4812;SDS011;2420;51.202;8.698;2023-05-24T01:04:01;7.85;;;3.40;;
4812;SDS011;2420;51.202;8.698;2023-05-24T01:06:27;9.75;;;3.53;;
4812;SDS011;2420;51.202;8.698;2023-05-24T01:09:00;10.35;;;2.92;;
4812;SDS011;2420;51.202;8.698;2023-05-24T01:12:11;8.50;;;3.50;;
4812;SDS011;2420;51.202;8.698;2023-05-24T01:17:49;10.98;;;3.10;;
4812;SDS011;2420;51.202;8.698;2023-05-24T01:20:35;9.93;;;2.80;;
4812;SDS011;2420;51.202;8.698;2023-05-24T01:23:06;8.38;;;3.05;;
4812;SDS011;2420;51.202;8.698;2023-05-24T01:28:26;10.07;;;2.85;;
4812;SDS011;2420;51.202;8.698;2023-05-24T01:30:52;12.85;;;3.40;;
4812;SDS011;2420;51.202;8.698;2023-05-24T01:33:19;13.60;;;3.53;;
4812;SDS011;2420;51.202;8.698;2023-05-24T01:35:45;9.10;;;3.50;;
4812;SDS011;2420;51.202;8.698;2023-05-24T01:38:10;8.05;;;3.20;;
4812;SDS011;2420;51.202;8.698;2023-05-24T01:40:36;9.70;;;3.50;;
4812;SDS011;2420;51.202;8.698;2023-05-24T01:43:11;14.90;;;3.83;;
4812;SDS011;2420;51.202;8.698;2023-05-24T01:48:58;8.02;;;3.20;;
4812;SDS011;2420;51.202;8.698;2023-05-24T01:51:46;12.30;;;3.50;;
4812;SDS011;2420;51.202;8.698;2023-05-24T01:54:22;10.77;;;3.35;;
4812;SDS011;2420;51.202;8.698;2023-05-24T01:56:50;8.80;;;3.97;;
4812;SDS011;2420;51.202;8.698;2023-05-24T01:59:18;12.63;;;3.15;;
4812;SDS011;2420;51.202;8.698;2023-05-24T02:01:47;10.95;;;3.47;;
4812;SDS011;2420;51.202;8.698;2023-05-24T02:04:14;14.30;;;3.50;;
4812;SDS011;2420;51.202;8.698;2023-05-24T02:06:40;11.30;;;3.17;;
4812;SDS011;2420;51.202;8.698;2023-05-24T02:09:05;13.45;;;3.70;;
4812;SDS011;2420;51.202;8.698;2023-05-24T02:11:31;12.18;;;3.65;;
4812;SDS011;2420;51.202;8.698;2023-05-24T02:13:57;14.43;;;3.15;;
4812;SDS011;2420;51.202;8.698;2023-05-24T02:16:22;10.43;;;3.60;;
4812;SDS011;2420;51.202;8.698;2023-05-24T02:18:50;13.20;;;3.47;;
4812;SDS011;2420;51.202;8.698;2023-05-24T02:21:16;15.98;;;3.60;;
4812;SDS011;2420;51.202;8.698;2023-05-24T02:23:42;15.73;;;3.92;;
4812;SDS011;2420;51.202;8.698;2023-05-24T02:26:08;10.57;;;3.50;;
4812;SDS011;2420;51.202;8.698;2023-05-24T02:28:35;11.80;;;3.78;;
4812;SDS011;2420;51.202;8.698;2023-05-24T02:31:01;17.45;;;3.85;;
4812;SDS011;2420;51.202;8.698;2023-05-24T02:33:27;10.57;;;3.88;;
4812;SDS011;2420;51.202;8.698;2023-05-24T02:35:53;10.52;;;3.58;;
4812;SDS011;2420;51.202;8.698;2023-05-24T02:38:19;11.80;;;3.85;;
4812;SDS011;2420;51.202;8.698;2023-05-24T02:40:45;12.90;;;3.63;;
4812;SDS011;2420;51.202;8.698;2023-05-24T02:43:10;15.52;;;3.92;;
4812;SDS011;2420;51.202;8.698;2023-05-24T02:45:36;13.30;;;3.80;;
4812;SDS011;2420;51.202;8.698;2023-05-24T02:48:02;15.48;;;3.90;;
4812;SDS011;2420;51.202;8.698;2023-05-24T02:50:27;13.07;;;3.75;;
4812;SDS011;2420;51.202;8.698;2023-05-24T02:52:53;11.55;;;3.70;;
4812;SDS011;2420;51.202;8.698;2023-05-24T02:55:18;12.07;;;3.70;;
4812;SDS011;2420;51.202;8.698;2023-05-24T02:57:44;12.15;;;4.00;;
4812;SDS011;2420;51.202;8.698;2023-05-24T03:00:09;9.65;;;3.78;;
4812;SDS011;2420;51.202;8.698;2023-05-24T03:02:35;14.23;;;3.78;;
4812;SDS011;2420;51.202;8.698;2023-05-24T03:05:02;16.10;;;3.67;;
4812;SDS011;2420;51.202;8.698;2023-05-24T03:07:28;15.15;;;3.63;;
4812;SDS011;2420;51.202;8.698;2023-05-24T03:09:54;12.95;;;3.97;;
4812;SDS011;2420;51.202;8.698;2023-05-24T03:12:19;9.15;;;3.88;;
4812;SDS011;2420;51.202;8.698;2023-05-24T03:14:45;10.05;;;3.90;;
4812;SDS011;2420;51.202;8.698;2023-05-24T03:17:11;11.60;;;4.43;;
4812;SDS011;2420;51.202;8.698;2023-05-24T03:19:36;8.45;;;4.05;;
4812;SDS011;2420;51.202;8.698;2023-05-24T03:22:02;11.52;;;4.35;;
4812;SDS011;2420;51.202;8.698;2023-05-24T03:24:27;13.45;;;4.10;;
4812;SDS011;2420;51.202;8.698;2023-05-24T03:26:53;18.15;;;4.70;;
4812;SDS011;2420;51.202;8.698;2023-05-24T03:29:18;10.38;;;4.25;;
4812;SDS011;2420;51.202;8.698;2023-05-24T03:31:44;8.02;;;3.88;;
4812;SDS011;2420;51.202;8.698;2023-05-24T03:34:09;10.10;;;4.28;;
4812;SDS011;2420;51.202;8.698;2023-05-24T03:36:35;13.38;;;4.07;;
4812;SDS011;2420;51.202;8.698;2023-05-24T03:39:00;15.25;;;4.53;;
4812;SDS011;2420;51.202;8.698;2023-05-24T03:41:28;15.27;;;4.55;;
4812;SDS011;2420;51.202;8.698;2023-05-24T03:43:54;8.48;;;3.92;;
4812;SDS011;2420;51.202;8.698;2023-05-24T03:46:20;14.85;;;4.50;;
4812;SDS011;2420;51.202;8.698;2023-05-24T03:48:45;17.15;;;5.03;;
4812;SDS011;2420;51.202;8.698;2023-05-24T03:51:11;15.20;;;3.83;;
4812;SDS011;2420;51.202;8.698;2023-05-24T03:53:37;11.95;;;3.95;;
4812;SDS011;2420;51.202;8.698;2023-05-24T03:56:03;9.68;;;4.22;;
4812;SDS011;2420;51.202;8.698;2023-05-24T03:58:28;11.15;;;4.18;;
4812;SDS011;2420;51.202;8.698;2023-05-24T04:00:54;14.10;;;4.93;;
4812;SDS011;2420;51.202;8.698;2023-05-24T04:03:19;12.95;;;4.93;;
4812;SDS011;2420;51.202;8.698;2023-05-24T04:05:45;17.92;;;5.32;;
4812;SDS011;2420;51.202;8.698;2023-05-24T04:08:10;13.43;;;4.90;;
4812;SDS011;2420;51.202;8.698;2023-05-24T04:10:38;11.13;;;4.82;;
4812;SDS011;2420;51.202;8.698;2023-05-24T04:13:04;18.25;;;6.30;;
4812;SDS011;2420;51.202;8.698;2023-05-24T04:15:30;17.80;;;5.25;;
4812;SDS011;2420;51.202;8.698;2023-05-24T04:17:58;14.20;;;5.05;;
4812;SDS011;2420;51.202;8.698;2023-05-24T04:20:24;15.13;;;4.35;;
4812;SDS011;2420;51.202;8.698;2023-05-24T04:22:51;16.15;;;5.30;;
4812;SDS011;2420;51.202;8.698;2023-05-24T04:25:18;16.85;;;4.80;;
4812;SDS011;2420;51.202;8.698;2023-05-24T04:27:44;16.65;;;5.18;;
4812;SDS011;2420;51.202;8.698;2023-05-24T04:30:12;22.95;;;5.93;;
4812;SDS011;2420;51.202;8.698;2023-05-24T04:32:39;17.60;;;4.80;;
4812;SDS011;2420;51.202;8.698;2023-05-24T04:35:11;20.33;;;5.65;;
4812;SDS011;2420;51.202;8.698;2023-05-24T04:37:37;20.40;;;5.75;;
4812;SDS011;2420;51.202;8.698;2023-05-24T04:40:03;15.98;;;5.15;;
4812;SDS011;2420;51.202;8.698;2023-05-24T04:42:30;18.98;;;5.05;;
4812;SDS011;2420;51.202;8.698;2023-05-24T04:44:55;16.13;;;5.35;;
4812;SDS011;2420;51.202;8.698;2023-05-24T04:47:21;15.88;;;5.72;;
4812;SDS011;2420;51.202;8.698;2023-05-24T04:49:48;17.42;;;5.28;;
4812;SDS011;2420;51.202;8.698;2023-05-24T04:52:14;13.55;;;5.50;;
4812;SDS011;2420;51.202;8.698;2023-05-24T04:54:40;18.00;;;5.15;;
4812;SDS011;2420;51.202;8.698;2023-05-24T04:57:06;20.60;;;5.43;;
4812;SDS011;2420;51.202;8.698;2023-05-24T04:59:31;12.98;;;4.72;;
4812;SDS011;2420;51.202;8.698;2023-05-24T05:01:57;18.15;;;5.28;;
4812;SDS011;2420;51.202;8.698;2023-05-24T05:04:22;17.58;;;5.30;;
4812;SDS011;2420;51.202;8.698;2023-05-24T05:06:48;14.25;;;5.03;;
4812;SDS011;2420;51.202;8.698;2023-05-24T05:09:14;13.77;;;4.35;;
4812;SDS011;2420;51.202;8.698;2023-05-24T05:11:39;14.55;;;4.90;;
4812;SDS011;2420;51.202;8.698;2023-05-24T05:14:05;11.82;;;4.70;;
4812;SDS011;2420;51.202;8.698;2023-05-24T05:16:34;14.70;;;4.95;;
4812;SDS011;2420;51.202;8.698;2023-05-24T05:19:01;17.05;;;6.28;;
4812;SDS011;2420;51.202;8.698;2023-05-24T05:21:28;17.13;;;4.85;;
4812;SDS011;2420;51.202;8.698;2023-05-24T05:23:57;12.98;;;5.10;;
4812;SDS011;2420;51.202;8.698;2023-05-24T05:26:23;19.73;;;5.18;;
4812;SDS011;2420;51.202;8.698;2023-05-24T05:28:48;13.77;;;4.93;;
4812;SDS011;2420;51.202;8.698;2023-05-24T05:31:14;12.40;;;4.65;;
4812;SDS011;2420;51.202;8.698;2023-05-24T05:33:39;10.82;;;4.63;;
4812;SDS011;2420;51.202;8.698;2023-05-24T05:36:05;13.32;;;4.88;;
4812;SDS011;2420;51.202;8.698;2023-05-24T05:38:30;11.65;;;4.57;;
4812;SDS011;2420;51.202;8.698;2023-05-24T05:40:56;14.55;;;4.72;;
4812;SDS011;2420;51.202;8.698;2023-05-24T05:43:22;16.83;;;5.82;;
4812;SDS011;2420;51.202;8.698;2023-05-24T05:45:47;14.85;;;4.53;;
4812;SDS011;2420;51.202;8.698;2023-05-24T05:48:12;13.50;;;4.97;;
4812;SDS011;2420;51.202;8.698;2023-05-24T05:50:38;14.98;;;4.60;;
4812;SDS011;2420;51.202;8.698;2023-05-24T05:53:03;16.25;;;4.75;;
4812;SDS011;2420;51.202;8.698;2023-05-24T05:55:29;16.05;;;4.72;;
4812;SDS011;2420;51.202;8.698;2023-05-24T05:57:55;16.60;;;5.70;;
4812;SDS011;2420;51.202;8.698;2023-05-24T06:00:20;18.42;;;5.03;;
4812;SDS011;2420;51.202;8.698;2023-05-24T06:02:47;16.60;;;5.28;;
4812;SDS011;2420;51.202;8.698;2023-05-24T06:05:12;16.65;;;5.28;;
4812;SDS011;2420;51.202;8.698;2023-05-24T06:07:38;12.20;;;4.88;;
4812;SDS011;2420;51.202;8.698;2023-05-24T06:10:04;14.93;;;4.88;;
4812;SDS011;2420;51.202;8.698;2023-05-24T06:12:30;18.77;;;5.40;;
4812;SDS011;2420;51.202;8.698;2023-05-24T06:14:55;19.92;;;5.72;;
4812;SDS011;2420;51.202;8.698;2023-05-24T06:17:21;15.85;;;5.13;;
4812;SDS011;2420;51.202;8.698;2023-05-24T06:19:48;13.90;;;4.85;;
4812;SDS011;2420;51.202;8.698;2023-05-24T06:22:15;11.15;;;5.03;;
4812;SDS011;2420;51.202;8.698;2023-05-24T06:24:41;14.48;;;5.22;;
4812;SDS011;2420;51.202;8.698;2023-05-24T06:27:07;10.85;;;4.93;;
4812;SDS011;2420;51.202;8.698;2023-05-24T06:29:33;12.60;;;5.20;;
4812;SDS011;2420;51.202;8.698;2023-05-24T06:31:58;11.70;;;5.05;;
4812;SDS011;2420;51.202;8.698;2023-05-24T06:34:24;15.75;;;5.45;;
4812;SDS011;2420;51.202;8.698;2023-05-24T06:36:49;13.48;;;4.82;;
4812;SDS011;2420;51.202;8.698;2023-05-24T06:39:16;15.13;;;4.97;;
4812;SDS011;2420;51.202;8.698;2023-05-24T06:41:42;11.30;;;5.18;;
4812;SDS011;2420;51.202;8.698;2023-05-24T06:44:08;13.10;;;4.95;;
4812;SDS011;2420;51.202;8.698;2023-05-24T06:46:34;8.35;;;4.60;;
4812;SDS011;2420;51.202;8.698;2023-05-24T06:49:00;15.32;;;5.15;;
4812;SDS011;2420;51.202;8.698;2023-05-24T06:51:25;11.15;;;4.95;;
4812;SDS011;2420;51.202;8.698;2023-05-24T06:53:51;18.05;;;5.28;;
4812;SDS011;2420;51.202;8.698;2023-05-24T06:56:17;14.90;;;4.90;;
4812;SDS011;2420;51.202;8.698;2023-05-24T06:58:42;16.90;;;4.85;;
4812;SDS011;2420;51.202;8.698;2023-05-24T07:01:08;11.88;;;4.38;;
4812;SDS011;2420;51.202;8.698;2023-05-24T07:03:34;13.18;;;4.93;;
4812;SDS011;2420;51.202;8.698;2023-05-24T07:06:00;10.50;;;4.32;;
4812;SDS011;2420;51.202;8.698;2023-05-24T07:08:26;14.65;;;4.85;;
4812;SDS011;2420;51.202;8.698;2023-05-24T07:10:54;16.02;;;4.88;;
4812;SDS011;2420;51.202;8.698;2023-05-24T07:13:20;12.40;;;4.47;;
4812;SDS011;2420;51.202;8.698;2023-05-24T07:15:46;10.70;;;4.43;;
4812;SDS011;2420;51.202;8.698;2023-05-24T07:18:12;17.88;;;4.57;;
4812;SDS011;2420;51.202;8.698;2023-05-24T07:20:38;13.18;;;4.70;;
4812;SDS011;2420;51.202;8.698;2023-05-24T07:23:04;12.65;;;4.75;;
4812;SDS011;2420;51.202;8.698;2023-05-24T07:25:31;13.77;;;4.75;;
4812;SDS011;2420;51.202;8.698;2023-05-24T07:27:57;12.65;;;4.40;;
4812;SDS011;2420;51.202;8.698;2023-05-24T07:30:23;13.02;;;4.65;;
4812;SDS011;2420;51.202;8.698;2023-05-24T07:32:49;9.90;;;3.97;;
4812;SDS011;2420;51.202;8.698;2023-05-24T07:35:15;9.30;;;4.00;;
4812;SDS011;2420;51.202;8.698;2023-05-24T07:37:41;12.00;;;3.80;;
4812;SDS011;2420;51.202;8.698;2023-05-24T07:40:07;13.60;;;4.07;;
4812;SDS011;2420;51.202;8.698;2023-05-24T07:42:36;10.55;;;3.70;;
4812;SDS011;2420;51.202;8.698;2023-05-24T07:45:02;11.52;;;3.42;;
4812;SDS011;2420;51.202;8.698;2023-05-24T07:47:28;9.32;;;3.33;;
4812;SDS011;2420;51.202;8.698;2023-05-24T07:49:53;8.60;;;3.45;;
4812;SDS011;2420;51.202;8.698;2023-05-24T07:52:23;12.60;;;4.13;;
4812;SDS011;2420;51.202;8.698;2023-05-24T07:54:50;6.97;;;3.28;;
4812;SDS011;2420;51.202;8.698;2023-05-24T07:57:16;9.15;;;3.33;;
4812;SDS011;2420;51.202;8.698;2023-05-24T07:59:42;8.43;;;3.80;;
4812;SDS011;2420;51.202;8.698;2023-05-24T08:02:08;10.98;;;3.78;;
4812;SDS011;2420;51.202;8.698;2023-05-24T08:04:35;9.95;;;3.75;;
4812;SDS011;2420;51.202;8.698;2023-05-24T08:07:02;12.90;;;3.55;;
4812;SDS011;2420;51.202;8.698;2023-05-24T08:09:29;8.43;;;3.17;;
4812;SDS011;2420;51.202;8.698;2023-05-24T08:11:59;13.85;;;3.80;;
4812;SDS011;2420;51.202;8.698;2023-05-24T08:14:25;12.32;;;3.90;;
4812;SDS011;2420;51.202;8.698;2023-05-24T08:16:51;13.27;;;4.45;;
4812;SDS011;2420;51.202;8.698;2023-05-24T08:19:17;11.70;;;3.60;;
4812;SDS011;2420;51.202;8.698;2023-05-24T08:21:43;10.52;;;3.88;;
4812;SDS011;2420;51.202;8.698;2023-05-24T08:24:09;10.45;;;4.00;;
4812;SDS011;2420;51.202;8.698;2023-05-24T08:26:34;13.48;;;3.90;;
4812;SDS011;2420;51.202;8.698;2023-05-24T08:29:00;10.70;;;3.78;;
4812;SDS011;2420;51.202;8.698;2023-05-24T08:31:26;6.95;;;3.80;;
4812;SDS011;2420;51.202;8.698;2023-05-24T08:33:52;10.80;;;3.55;;
4812;SDS011;2420;51.202;8.698;2023-05-24T08:36:18;9.45;;;3.60;;
4812;SDS011;2420;51.202;8.698;2023-05-24T08:38:44;8.07;;;3.67;;
4812;SDS011;2420;51.202;8.698;2023-05-24T08:41:10;10.63;;;4.07;;
4812;SDS011;2420;51.202;8.698;2023-05-24T08:43:36;11.38;;;3.90;;
4812;SDS011;2420;51.202;8.698;2023-05-24T08:46:03;14.02;;;4.00;;
4812;SDS011;2420;51.202;8.698;2023-05-24T08:48:29;10.82;;;3.72;;
4812;SDS011;2420;51.202;8.698;2023-05-24T08:50:56;15.35;;;3.83;;
4812;SDS011;2420;51.202;8.698;2023-05-24T08:53:22;8.77;;;3.72;;
4812;SDS011;2420;51.202;8.698;2023-05-24T08:55:48;9.60;;;3.70;;
4812;SDS011;2420;51.202;8.698;2023-05-24T08:58:17;13.48;;;4.10;;
4812;SDS011;2420;51.202;8.698;2023-05-24T09:00:43;8.57;;;3.47;;
4812;SDS011;2420;51.202;8.698;2023-05-24T09:03:08;8.27;;;3.22;;
4812;SDS011;2420;51.202;8.698;2023-05-24T09:05:35;13.10;;;3.97;;
4812;SDS011;2420;51.202;8.698;2023-05-24T09:08:01;9.98;;;3.55;;
4812;SDS011;2420;51.202;8.698;2023-05-24T09:10:28;14.60;;;4.28;;
4812;SDS011;2420;51.202;8.698;2023-05-24T09:12:56;11.90;;;4.03;;
4812;SDS011;2420;51.202;8.698;2023-05-24T09:15:22;11.02;;;4.20;;
4812;SDS011;2420;51.202;8.698;2023-05-24T09:17:48;10.77;;;4.05;;
4812;SDS011;2420;51.202;8.698;2023-05-24T09:20:14;9.55;;;3.75;;
4812;SDS011;2420;51.202;8.698;2023-05-24T09:22:40;9.75;;;3.70;;
4812;SDS011;2420;51.202;8.698;2023-05-24T09:25:06;10.77;;;3.83;;
4812;SDS011;2420;51.202;8.698;2023-05-24T09:27:34;11.40;;;3.75;;
4812;SDS011;2420;51.202;8.698;2023-05-24T09:30:00;11.60;;;4.07;;
4812;SDS011;2420;51.202;8.698;2023-05-24T09:32:28;10.80;;;3.85;;
4812;SDS011;2420;51.202;8.698;2023-05-24T09:34:56;10.18;;;3.83;;
4812;SDS011;2420;51.202;8.698;2023-05-24T09:37:23;10.95;;;3.70;;
4812;SDS011;2420;51.202;8.698;2023-05-24T09:39:51;8.70;;;3.33;;
4812;SDS011;2420;51.202;8.698;2023-05-24T09:42:18;8.88;;;3.60;;
4812;SDS011;2420;51.202;8.698;2023-05-24T09:44:48;13.23;;;4.20;;
4812;SDS011;2420;51.202;8.698;2023-05-24T09:47:28;10.93;;;3.67;;
4812;SDS011;2420;51.202;8.698;2023-05-24T09:49:54;9.02;;;3.72;;
4812;SDS011;2420;51.202;8.698;2023-05-24T09:52:20;13.73;;;3.85;;
4812;SDS011;2420;51.202;8.698;2023-05-24T09:54:46;10.77;;;3.65;;
4812;SDS011;2420;51.202;8.698;2023-05-24T09:57:14;12.65;;;4.05;;
4812;SDS011;2420;51.202;8.698;2023-05-24T09:59:43;10.70;;;3.92;;
4812;SDS011;2420;51.202;8.698;2023-05-24T10:02:09;12.27;;;3.88;;
4812;SDS011;2420;51.202;8.698;2023-05-24T10:04:36;10.50;;;4.20;;
4812;SDS011;2420;51.202;8.698;2023-05-24T10:07:02;6.82;;;3.20;;
4812;SDS011;2420;51.202;8.698;2023-05-24T10:09:29;11.00;;;3.58;;
4812;SDS011;2420;51.202;8.698;2023-05-24T10:12:00;8.07;;;3.45;;
4812;SDS011;2420;51.202;8.698;2023-05-24T10:14:28;8.05;;;3.80;;
4812;SDS011;2420;51.202;8.698;2023-05-24T10:16:57;11.73;;;3.83;;
4812;SDS011;2420;51.202;8.698;2023-05-24T10:19:23;11.25;;;3.78;;
4812;SDS011;2420;51.202;8.698;2023-05-24T10:21:49;9.05;;;3.55;;
4812;SDS011;2420;51.202;8.698;2023-05-24T10:24:17;10.63;;;3.72;;
4812;SDS011;2420;51.202;8.698;2023-05-24T10:26:48;7.07;;;3.25;;
4812;SDS011;2420;51.202;8.698;2023-05-24T10:29:32;7.15;;;2.97;;
4812;SDS011;2420;51.202;8.698;2023-05-24T10:32:09;13.50;;;4.78;;
4812;SDS011;2420;51.202;8.698;2023-05-24T10:34:36;8.30;;;3.42;;
4812;SDS011;2420;51.202;8.698;2023-05-24T10:37:03;11.20;;;3.65;;
4812;SDS011;2420;51.202;8.698;2023-05-24T10:39:29;7.70;;;3.63;;
4812;SDS011;2420;51.202;8.698;2023-05-24T10:42:00;8.82;;;4.05;;
4812;SDS011;2420;51.202;8.698;2023-05-24T10:44:27;9.00;;;4.03;;
4812;SDS011;2420;51.202;8.698;2023-05-24T10:47:10;7.20;;;3.63;;
4812;SDS011;2420;51.202;8.698;2023-05-24T10:49:37;9.18;;;3.80;;
4812;SDS011;2420;51.202;8.698;2023-05-24T10:52:15;9.43;;;3.63;;
4812;SDS011;2420;51.202;8.698;2023-05-24T10:54:40;8.52;;;3.88;;
4812;SDS011;2420;51.202;8.698;2023-05-24T10:57:33;12.40;;;3.58;;
4812;SDS011;2420;51.202;8.698;2023-05-24T11:02:47;8.82;;;3.60;;
4812;SDS011;2420;51.202;8.698;2023-05-24T11:05:13;7.57;;;3.78;;
4812;SDS011;2420;51.202;8.698;2023-05-24T11:07:40;7.93;;;3.92;;
4812;SDS011;2420;51.202;8.698;2023-05-24T11:10:13;8.82;;;4.13;;
4812;SDS011;2420;51.202;8.698;2023-05-24T11:12:40;10.45;;;3.85;;
4812;SDS011;2420;51.202;8.698;2023-05-24T11:15:09;12.00;;;4.07;;
4812;SDS011;2420;51.202;8.698;2023-05-24T11:18:11;11.23;;;4.15;;
4812;SDS011;2420;51.202;8.698;2023-05-24T11:20:42;9.70;;;4.15;;
4812;SDS011;2420;51.202;8.698;2023-05-24T11:23:09;7.65;;;3.90;;
4812;SDS011;2420;51.202;8.698;2023-05-24T11:25:35;9.38;;;4.05;;
4812;SDS011;2420;51.202;8.698;2023-05-24T11:28:10;9.88;;;4.18;;
4812;SDS011;2420;51.202;8.698;2023-05-24T11:30:43;8.38;;;3.80;;
4812;SDS011;2420;51.202;8.698;2023-05-24T11:33:20;10.18;;;4.78;;
4812;SDS011;2420;51.202;8.698;2023-05-24T11:35:50;9.68;;;4.55;;
4812;SDS011;2420;51.202;8.698;2023-05-24T11:38:18;7.43;;;4.15;;
4812;SDS011;2420;51.202;8.698;2023-05-24T11:40:45;12.38;;;4.35;;
4812;SDS011;2420;51.202;8.698;2023-05-24T11:43:13;14.23;;;4.85;;
4812;SDS011;2420;51.202;8.698;2023-05-24T11:45:41;12.32;;;4.55;;
4812;SDS011;2420;51.202;8.698;2023-05-24T11:48:07;10.07;;;4.43;;
4812;SDS011;2420;51.202;8.698;2023-05-24T11:50:37;14.20;;;4.93;;
4812;SDS011;2420;51.202;8.698;2023-05-24T11:53:03;10.85;;;4.20;;
4812;SDS011;2420;51.202;8.698;2023-05-24T11:55:29;15.88;;;4.95;;
4812;SDS011;2420;51.202;8.698;2023-05-24T11:57:57;12.00;;;4.63;;
4812;SDS011;2420;51.202;8.698;2023-05-24T12:00:26;10.70;;;4.40;;
4812;SDS011;2420;51.202;8.698;2023-05-24T12:02:54;12.32;;;4.97;;
4812;SDS011;2420;51.202;8.698;2023-05-24T12:05:20;12.73;;;4.88;;
4812;SDS011;2420;51.202;8.698;2023-05-24T12:07:46;11.45;;;4.60;;
4812;SDS011;2420;51.202;8.698;2023-05-24T12:10:14;14.25;;;4.78;;
4812;SDS011;2420;51.202;8.698;2023-05-24T12:12:43;15.32;;;4.60;;
4812;SDS011;2420;51.202;8.698;2023-05-24T12:15:09;17.13;;;4.93;;
4812;SDS011;2420;51.202;8.698;2023-05-24T12:17:35;12.63;;;4.50;;
4812;SDS011;2420;51.202;8.698;2023-05-24T12:20:01;14.75;;;4.75;;
4812;SDS011;2420;51.202;8.698;2023-05-24T12:22:30;11.15;;;4.38;;
4812;SDS011;2420;51.202;8.698;2023-05-24T12:24:55;14.32;;;4.70;;
4812;SDS011;2420;51.202;8.698;2023-05-24T12:27:24;10.95;;;3.85;;
4812;SDS011;2420;51.202;8.698;2023-05-24T12:29:51;10.48;;;4.40;;
4812;SDS011;2420;51.202;8.698;2023-05-24T12:32:17;11.98;;;4.47;;
4812;SDS011;2420;51.202;8.698;2023-05-24T12:34:43;10.07;;;4.30;;
4812;SDS011;2420;51.202;8.698;2023-05-24T12:37:09;10.38;;;4.30;;
4812;SDS011;2420;51.202;8.698;2023-05-24T12:39:36;9.85;;;4.80;;
4812;SDS011;2420;51.202;8.698;2023-05-24T12:42:03;9.25;;;4.72;;
4812;SDS011;2420;51.202;8.698;2023-05-24T12:44:37;9.60;;;4.00;;
4812;SDS011;2420;51.202;8.698;2023-05-24T12:47:04;15.73;;;4.97;;
4812;SDS011;2420;51.202;8.698;2023-05-24T12:49:31;12.48;;;4.57;;
4812;SDS011;2420;51.202;8.698;2023-05-24T12:51:57;13.60;;;5.03;;
4812;SDS011;2420;51.202;8.698;2023-05-24T12:54:23;9.35;;;4.63;;
4812;SDS011;2420;51.202;8.698;2023-05-24T12:56:50;13.80;;;5.45;;
4812;SDS011;2420;51.202;8.698;2023-05-24T12:59:17;10.48;;;4.78;;
4812;SDS011;2420;51.202;8.698;2023-05-24T13:01:42;10.20;;;4.88;;
4812;SDS011;2420;51.202;8.698;2023-05-24T13:04:14;9.00;;;4.13;;
4812;SDS011;2420;51.202;8.698;2023-05-24T13:06:39;8.75;;;4.28;;
4812;SDS011;2420;51.202;8.698;2023-05-24T13:09:05;9.07;;;4.80;;
4812;SDS011;2420;51.202;8.698;2023-05-24T13:11:30;10.48;;;4.55;;
4812;SDS011;2420;51.202;8.698;2023-05-24T13:13:59;9.93;;;4.60;;
4812;SDS011;2420;51.202;8.698;2023-05-24T13:16:26;9.68;;;5.07;;
4812;SDS011;2420;51.202;8.698;2023-05-24T13:18:52;9.77;;;4.55;;
4812;SDS011;2420;51.202;8.698;2023-05-24T13:21:17;12.10;;;4.53;;
4812;SDS011;2420;51.202;8.698;2023-05-24T13:23:43;8.65;;;4.63;;
4812;SDS011;2420;51.202;8.698;2023-05-24T13:26:09;12.60;;;5.45;;
4812;SDS011;2420;51.202;8.698;2023-05-24T13:28:35;10.48;;;4.75;;
4812;SDS011;2420;51.202;8.698;2023-05-24T13:31:00;11.75;;;4.75;;
4812;SDS011;2420;51.202;8.698;2023-05-24T13:33:26;9.48;;;4.60;;
4812;SDS011;2420;51.202;8.698;2023-05-24T13:35:52;7.20;;;3.70;;
4812;SDS011;2420;51.202;8.698;2023-05-24T13:38:19;7.40;;;4.00;;
4812;SDS011;2420;51.202;8.698;2023-05-24T13:40:45;9.40;;;3.78;;
4812;SDS011;2420;51.202;8.698;2023-05-24T13:43:11;6.35;;;3.08;;
4812;SDS011;2420;51.202;8.698;2023-05-24T13:45:36;4.50;;;3.33;;
4812;SDS011;2420;51.202;8.698;2023-05-24T13:48:02;5.88;;;3.20;;
4812;SDS011;2420;51.202;8.698;2023-05-24T13:50:37;6.97;;;3.40;;
4812;SDS011;2420;51.202;8.698;2023-05-24T13:53:03;7.20;;;3.97;;
4812;SDS011;2420;51.202;8.698;2023-05-24T13:55:29;9.35;;;4.10;;
4812;SDS011;2420;51.202;8.698;2023-05-24T13:57:56;8.30;;;4.18;;
4812;SDS011;2420;51.202;8.698;2023-05-24T14:00:22;7.88;;;4.13;;
4812;SDS011;2420;51.202;8.698;2023-05-24T14:02:48;7.80;;;3.92;;
4812;SDS011;2420;51.202;8.698;2023-05-24T14:05:15;8.98;;;3.97;;
4812;SDS011;2420;51.202;8.698;2023-05-24T14:07:41;4.88;;;3.70;;
4812;SDS011;2420;51.202;8.698;2023-05-24T14:10:07;7.97;;;3.90;;
4812;SDS011;2420;51.202;8.698;2023-05-24T14:12:33;8.43;;;3.92;;
4812;SDS011;2420;51.202;8.698;2023-05-24T14:14:59;8.73;;;4.20;;
4812;SDS011;2420;51.202;8.698;2023-05-24T14:17:25;5.93;;;3.40;;
4812;SDS011;2420;51.202;8.698;2023-05-24T14:19:51;6.65;;;3.42;;
4812;SDS011;2420;51.202;8.698;2023-05-24T14:22:17;6.72;;;3.80;;
4812;SDS011;2420;51.202;8.698;2023-05-24T14:24:42;5.13;;;3.08;;
4812;SDS011;2420;51.202;8.698;2023-05-24T14:27:08;6.13;;;3.20;;
4812;SDS011;2420;51.202;8.698;2023-05-24T14:29:33;8.90;;;3.17;;
4812;SDS011;2420;51.202;8.698;2023-05-24T14:31:59;6.90;;;3.20;;
4812;SDS011;2420;51.202;8.698;2023-05-24T14:34:25;10.25;;;3.72;;
4812;SDS011;2420;51.202;8.698;2023-05-24T14:36:50;6.45;;;3.65;;
4812;SDS011;2420;51.202;8.698;2023-05-24T14:39:16;8.48;;;3.70;;
4812;SDS011;2420;51.202;8.698;2023-05-24T14:41:41;6.68;;;3.45;;
4812;SDS011;2420;51.202;8.698;2023-05-24T14:44:09;5.75;;;3.55;;
4812;SDS011;2420;51.202;8.698;2023-05-24T14:46:35;8.57;;;3.30;;
4812;SDS011;2420;51.202;8.698;2023-05-24T14:49:00;8.57;;;4.43;;
4812;SDS011;2420;51.202;8.698;2023-05-24T14:51:26;7.72;;;3.92;;
4812;SDS011;2420;51.202;8.698;2023-05-24T14:53:52;10.30;;;4.57;;
4812;SDS011;2420;51.202;8.698;2023-05-24T14:56:17;5.15;;;3.47;;
4812;SDS011;2420;51.202;8.698;2023-05-24T14:58:43;9.07;;;3.83;;
4812;SDS011;2420;51.202;8.698;2023-05-24T15:01:08;5.43;;;3.20;;
4812;SDS011;2420;51.202;8.698;2023-05-24T15:03:34;4.85;;;2.90;;
4812;SDS011;2420;51.202;8.698;2023-05-24T15:06:00;2.90;;;2.22;;
4812;SDS011;2420;51.202;8.698;2023-05-24T15:08:26;5.85;;;3.00;;
4812;SDS011;2420;51.202;8.698;2023-05-24T15:10:51;5.60;;;3.47;;
4812;SDS011;2420;51.202;8.698;2023-05-24T15:13:17;4.85;;;2.80;;
4812;SDS011;2420;51.202;8.698;2023-05-24T15:15:44;6.43;;;2.80;;
4812;SDS011;2420;51.202;8.698;2023-05-24T15:18:09;4.93;;;2.75;;